Isan — FIIL — position and weather

sailwx.info

Track history (hours):
 
Tides and Currents Weather Stations Pressure Air Temp Water Temp Dewpoint Dewpoint Depression Visibility Wind Speed Wind Dir Waves Ship Positions

Isan

Last reported at 2018-Apr-09 20:26 UTC. Time now 2018-Apr-22 18:20 UTC.
Position S 27°27' E 153°05'.
Warning: this ship's position is 12 days out of date.

Length 64 m; draft 3 m.

Type: Cargo ship. MMSI: 540012200.

Date/timePositionNaut miles runAvg speedWind from/ knotsBaromVisibWave heightAir tempDewpointWater temp
2018-Apr-09 20:26S 27°27' E 153°05'0 0.3
2018-Apr-09 19:57S 27°27' E 153°05'2 4.5
2018-Apr-09 19:30S 27°26' E 153°07'4 6.9
2018-Apr-09 19:00S 27°23' E 153°09'4 7.5
2018-Apr-09 18:30S 27°20' E 153°11'4 8.9
2018-Apr-09 18:00S 27°16' E 153°14'5 9.4
2018-Apr-09 17:30S 27°13' E 153°17'5 9.6
2018-Apr-09 17:00S 27°08' E 153°20'510.0
2018-Apr-09 16:30S 27°04' E 153°17'510.0
2018-Apr-09 16:00S 26°60' E 153°14'5 9.9
2018-Apr-09 15:30S 26°55' E 153°11'5 9.5
2018-Apr-09 15:00S 26°51' E 153°09'  
2018-Apr-06 04:39S 22°25' E 166°06'210.8
2018-Apr-06 04:30S 22°24' E 166°08'510.8
2018-Apr-06 04:00S 22°22' E 166°13'611.2
2018-Apr-06 03:30S 22°19' E 166°18'510.8
2018-Apr-06 03:00S 22°15' E 166°22'3 6.5
2018-Apr-06 02:30S 22°16' E 166°25'0 0.0
2018-Apr-06 02:00S 22°16' E 166°25'0 0.0
2018-Apr-06 01:30S 22°16' E 166°25'0 0.0
2018-Apr-05 02:34S 22°16' E 166°25'0 0.1
2018-Apr-05 02:30S 22°16' E 166°25'2 4.4
2018-Apr-05 02:00S 22°16' E 166°23'510.6
2018-Apr-05 01:30S 22°20' E 166°27'611.0
2018-Apr-05 01:00S 22°22' E 166°33'610.8
2018-Apr-05 00:24S 22°23' E 166°40'3 0.1
2018-Apr-03 06:47S 22°23' E 166°42'3 9.7
2018-Apr-03 06:30S 22°23' E 166°39'5 9.3
2018-Apr-03 06:00S 22°22' E 166°34'5 9.3
2018-Apr-03 05:30S 22°21' E 166°30'4 8.9
2018-Apr-03 05:00S 22°19' E 166°25'5 8.9
2018-Apr-03 04:30S 22°15' E 166°23'3 5.4
2018-Apr-03 04:00S 22°16' E 166°25'0 0.0
2018-Apr-03 03:29S 22°16' E 166°25'0 0.0
2018-Apr-03 03:00S 22°16' E 166°25'0 0.0
2018-Apr-03 02:30S 22°16' E 166°25'  
Track history (hours):
 
Tides and Currents Weather Stations Pressure Air Temp Water Temp Dewpoint Dewpoint Depression Visibility Wind Speed Wind Dir Waves Ship Positions

Isan

Last reported at 2018-Apr-09 20:26 UTC. Time now 2018-Apr-22 18:20 UTC.
Position S 27°27' E 153°05'.
Warning: this ship's position is 12 days out of date.

Length 64 m; draft 3 m.

Type: Cargo ship. MMSI: 540012200.

Date/timePositionNaut miles runAvg speedWind from/ knotsBaromVisibWave heightAir tempDewpointWater temp
2018-Apr-09 20:26S 27°27' E 153°05'0 0.3
2018-Apr-09 19:57S 27°27' E 153°05'2 4.5
2018-Apr-09 19:30S 27°26' E 153°07'4 6.9
2018-Apr-09 19:00S 27°23' E 153°09'4 7.5
2018-Apr-09 18:30S 27°20' E 153°11'4 8.9
2018-Apr-09 18:00S 27°16' E 153°14'5 9.4
2018-Apr-09 17:30S 27°13' E 153°17'5 9.6
2018-Apr-09 17:00S 27°08' E 153°20'510.0
2018-Apr-09 16:30S 27°04' E 153°17'510.0
2018-Apr-09 16:00S 26°60' E 153°14'5 9.9
2018-Apr-09 15:30S 26°55' E 153°11'5 9.5
2018-Apr-09 15:00S 26°51' E 153°09'  
2018-Apr-06 04:39S 22°25' E 166°06'210.8
2018-Apr-06 04:30S 22°24' E 166°08'510.8
2018-Apr-06 04:00S 22°22' E 166°13'611.2
2018-Apr-06 03:30S 22°19' E 166°18'510.8
2018-Apr-06 03:00S 22°15' E 166°22'3 6.5
2018-Apr-06 02:30S 22°16' E 166°25'0 0.0
2018-Apr-06 02:00S 22°16' E 166°25'0 0.0
2018-Apr-06 01:30S 22°16' E 166°25'0 0.0
2018-Apr-05 02:34S 22°16' E 166°25'0 0.1
2018-Apr-05 02:30S 22°16' E 166°25'2 4.4
2018-Apr-05 02:00S 22°16' E 166°23'510.6
2018-Apr-05 01:30S 22°20' E 166°27'611.0
2018-Apr-05 01:00S 22°22' E 166°33'610.8
2018-Apr-05 00:24S 22°23' E 166°40'3 0.1
2018-Apr-03 06:47S 22°23' E 166°42'3 9.7
2018-Apr-03 06:30S 22°23' E 166°39'5 9.3
2018-Apr-03 06:00S 22°22' E 166°34'5 9.3
2018-Apr-03 05:30S 22°21' E 166°30'4 8.9
2018-Apr-03 05:00S 22°19' E 166°25'5 8.9
2018-Apr-03 04:30S 22°15' E 166°23'3 5.4
2018-Apr-03 04:00S 22°16' E 166°25'0 0.0
2018-Apr-03 03:29S 22°16' E 166°25'0 0.0
2018-Apr-03 03:00S 22°16' E 166°25'0 0.0
2018-Apr-03 02:30S 22°16' E 166°25'  

Dump ship's entire track history